Cheyenne, WY (82008)

5:11 AM MDT on August 20, 2014 (GMT -0600)
Bison Crossing | Change Station
CLOSE
Current Station
Personal Weather Station
Location: Cheyenne, WY
Elevation: 6110 ft
Nearby Weather Stations

Elev 6110 ft 41.07 °N, 104.81 °W | Updated 1 minute ago

Mostly Cloudy
Mostly Cloudy
61.6 °F
Feels Like 61.6 °F
N
1.0
Wind Variable Wind from WNW
Gusts 14.0 mph

Today
High -- | Low -- °F
--% Chance of Precip.
Yesterday
High -- | Low -- °F
Precip. -- in
6:13 AM 7:50 PM
Waning Crescent, 22% visible
Pressure 29.70 in
Visibility 10.0 miles
Clouds Mostly Cloudy 8500 ft
Dew Point 51 °F
Humidity 68%
Rainfall 0.00 in
Snow Depth Not available.
UV 0 out of 12
Pollen 9.60 out of 12
Air Quality Not available.
Flu Activity Not available.
METAR KFEW 201056Z AUTO 33004KT 10SM BKN085 16/10 A2993 RMK AO2 SLP058 T01640096

More Conditions Fewer Conditions

Pressure 29.70 in
Visibility 10.0 miles
Clouds Mostly Cloudy 8500 ft
Dew Point 51 °F
Humidity 68%
Rainfall 0.00 in
Snow Depth Not available.
UV 0 out of 12
Pollen 9.60 out of 12
Air Quality Not available.
Flu Activity Not available.
METAR KFEW 201056Z AUTO 33004KT 10SM BKN085 16/10 A2993 RMK AO2 SLP058 T01640096

More Conditions Fewer Conditions

10-Day Weather Forecast

Almanac

Astronomy

Aug. 20, 2014 Rise Set
Actual Time 6:13 AM MDT 7:50 PM MDT
Civil Twilight 5:44 AM MDT 8:19 PM MDT
Nautical Twilight 5:09 AM MDT 8:54 PM MDT
Astronomical Twilight 4:31 AM MDT 9:32 PM MDT
Moon 1:55 AM MDT 4:38 PM MDT
Length of Visible Light 14h 34m
Length of Day
13h 36m
Tomorrow will be 2m 30s shorter.
Waning Crescent, 22% of the Moon is Illuminated
Today
Waning Crescent
Aug 25
New
Sep 2
First Quarter
Sep 8
Full
Sep 15
Last Quarter

Today's Extremes

State Highs State Lows

Community

WunderPhotos

Upload Photos

1,745,609 photos uploaded!

Nearby

Snow Depth

Station Depth Elevation
Crow Creek 1 in 8330 ft
Whiskey Park 0 in 8950 ft
Cinnabar Park 1 in 9690 ft
Brooklyn Lake 0 in 10220 ft
Sand Lake 0 in 10050 ft

Earthquake Activity

City Distance Mag. Time & Date
No recent earthquake activity has been reported nearby.
Minimum magnitude displayed is 2.5.

Coastal Water Temperatures

Place Temperature
No Stations Reporting

Nearby Weather Stations